Time;durP1;ratioP1;P1;durP2;ratioP2;P2;SDS_P1;SDS_P2;PMS_P1;PMS_P2;Temp;Humidity;BMP_temperature;BMP_pressure;BME280_temperature;BME280_humidity;BME280_pressure;Samples;Min_cycle;Max_cycle;Signal;HPM_P1;HPM_P2
2021/01/27 00:00:03;;;;;;;2.53;1.73;;;;;;;;;;5027204;28;20095;-71
2021/01/27 00:02:28;;;;;;;2.42;1.30;;;;;;;;;;4997106;28;20033;-71
2021/01/27 00:04:53;;;;;;;2.83;1.50;;;;;;;;;;5013154;28;20052;-71
2021/01/27 00:07:19;;;;;;;3.47;1.80;;;;;;;;;;5013583;28;20042;-71
2021/01/27 00:09:44;;;;;;;2.63;1.60;;;;;;;;;;5014207;28;20037;-71
2021/01/27 00:12:10;;;;;;;3.38;1.42;;;;;;;;;;5013233;28;20396;-71
2021/01/27 00:14:35;;;;;;;2.83;1.42;;;;;;;;;;5013092;28;20358;-71
2021/01/27 00:17:00;;;;;;;3.13;1.50;;;;;;;;;;5008334;28;20404;-71
2021/01/27 00:19:26;;;;;;;2.63;1.40;;;;;;;;;;4996585;28;20408;-71
2021/01/27 00:21:51;;;;;;;2.53;1.30;;;;;;;;;;4996550;28;20402;-71
2021/01/27 00:24:17;;;;;;;2.67;1.42;;;;;;;;;;4996283;28;20388;-71
2021/01/27 00:26:42;;;;;;;3.45;1.80;;;;;;;;;;4997598;28;20042;-71
2021/01/27 00:29:08;;;;;;;2.55;1.38;;;;;;;;;;5012859;28;20381;-71
2021/01/27 00:31:33;;;;;;;2.90;1.10;;;;;;;;;;4992944;28;20448;-71
2021/01/27 00:33:59;;;;;;;2.17;1.38;;;;;;;;;;4993160;28;20449;-71
2021/01/27 00:36:24;;;;;;;2.80;1.33;;;;;;;;;;5009805;28;20432;-71
2021/01/27 00:38:49;;;;;;;3.53;1.40;;;;;;;;;;4992468;28;20440;-71
2021/01/27 00:41:15;;;;;;;3.00;1.45;;;;;;;;;;5009535;28;20391;-71
2021/01/27 00:43:41;;;;;;;2.90;1.52;;;;;;;;;;4995376;28;20049;-71
2021/01/27 00:46:06;;;;;;;2.53;1.30;;;;;;;;;;4979462;28;20096;-71
2021/01/27 00:48:32;;;;;;;2.30;1.30;;;;;;;;;;5006203;28;20104;-71
2021/01/27 00:50:57;;;;;;;3.70;1.40;;;;;;;;;;5012426;28;20415;-71
2021/01/27 00:53:23;;;;;;;3.20;1.52;;;;;;;;;;4992761;28;20473;-71
2021/01/27 00:55:48;;;;;;;2.22;1.20;;;;;;;;;;5006550;28;20454;-71
2021/01/27 00:58:14;;;;;;;2.35;1.10;;;;;;;;;;5030874;28;20034;-72
2021/01/27 01:00:40;;;;;;;1.95;1.10;;;;;;;;;;5032167;28;20043;-71
2021/01/27 01:03:06;;;;;;;2.40;1.13;;;;;;;;;;5032560;28;20033;-71
2021/01/27 01:05:34;;;;;;;2.90;1.08;;;;;;;;;;5031921;28;20033;-71
2021/01/27 01:07:59;;;;;;;1.90;1.02;;;;;;;;;;5031699;28;20084;-71
2021/01/27 01:10:31;;;;;;;3.10;1.40;;;;;;;;;;5015632;28;20041;-72
2021/01/27 01:12:57;;;;;;;2.22;1.35;;;;;;;;;;5032114;28;20033;-71
2021/01/27 01:15:23;;;;;;;2.85;0.85;;;;;;;;;;5030262;28;20060;-71
2021/01/27 01:17:49;;;;;;;2.53;1.20;;;;;;;;;;5015324;28;20031;-72
2021/01/27 01:20:14;;;;;;;1.98;0.95;;;;;;;;;;5015293;28;20044;-71
2021/01/27 01:22:53;;;;;;;1.95;1.00;;;;;;;;;;5015345;28;20029;-71
2021/01/27 01:25:20;;;;;;;2.42;1.10;;;;;;;;;;5031785;28;20045;-71
2021/01/27 01:27:46;;;;;;;2.08;1.05;;;;;;;;;;5016553;28;20069;-71
2021/01/27 01:30:22;;;;;;;2.78;1.00;;;;;;;;;;4995606;28;20383;-72
2021/01/27 01:32:48;;;;;;;2.75;1.60;;;;;;;;;;5013169;28;20022;-72
2021/01/27 01:35:14;;;;;;;2.67;1.20;;;;;;;;;;5011627;28;20100;-72
2021/01/27 01:37:41;;;;;;;1.80;1.00;;;;;;;;;;4991193;28;20085;-72
2021/01/27 01:40:08;;;;;;;1.67;0.90;;;;;;;;;;5023594;28;20045;-72
2021/01/27 01:42:33;;;;;;;2.97;0.90;;;;;;;;;;5015151;28;20088;-72
2021/01/27 01:44:59;;;;;;;2.15;1.00;;;;;;;;;;5011196;28;20042;-72
2021/01/27 01:47:25;;;;;;;2.70;1.00;;;;;;;;;;5011729;28;20029;-72
2021/01/27 01:49:50;;;;;;;2.47;1.08;;;;;;;;;;5012843;28;20061;-73
2021/01/27 01:52:16;;;;;;;2.35;0.90;;;;;;;;;;4994628;28;20046;-73
2021/01/27 01:54:42;;;;;;;2.33;1.00;;;;;;;;;;4994729;28;20396;-73
2021/01/27 01:57:13;;;;;;;1.90;0.80;;;;;;;;;;4979740;28;20459;-73
2021/01/27 01:59:39;;;;;;;2.85;1.05;;;;;;;;;;4995262;28;20049;-73
2021/01/27 02:02:06;;;;;;;2.10;0.98;;;;;;;;;;5002474;28;20033;-74
2021/01/27 02:04:34;;;;;;;1.80;0.80;;;;;;;;;;5014580;28;20069;-74
2021/01/27 02:07:00;;;;;;;2.38;1.00;;;;;;;;;;5014637;28;20029;-74
2021/01/27 02:09:25;;;;;;;2.28;1.00;;;;;;;;;;4998019;28;20124;-75
2021/01/27 02:12:09;;;;;;;2.53;0.98;;;;;;;;;;4997914;28;20073;-76
2021/01/27 02:14:47;;;;;;;2.17;0.80;;;;;;;;;;5032063;28;20033;-76
2021/01/27 02:17:27;;;;;;;2.30;1.02;;;;;;;;;;5032144;28;20044;-76
2021/01/27 02:20:21;;;;;;;2.33;1.30;;;;;;;;;;5031393;28;20030;-76
2021/01/27 02:23:02;;;;;;;2.03;0.75;;;;;;;;;;5030859;28;20138;-76
2021/01/27 02:26:00;;;;;;;1.65;1.10;;;;;;;;;;5030579;28;20033;-76
2021/01/27 02:29:04;;;;;;;1.70;0.90;;;;;;;;;;4992735;28;20037;-76
2021/01/27 02:31:43;;;;;;;1.83;0.90;;;;;;;;;;5003338;28;20052;-76
2021/01/27 02:34:31;;;;;;;2.17;1.00;;;;;;;;;;5015024;28;20121;-76
2021/01/27 02:37:01;;;;;;;2.65;1.00;;;;;;;;;;5000840;28;20045;-76
2021/01/27 02:39:31;;;;;;;2.90;1.02;;;;;;;;;;4993899;28;20396;-76
2021/01/27 02:42:23;;;;;;;1.90;1.10;;;;;;;;;;4997796;28;20104;-76
2021/01/27 02:45:12;;;;;;;1.83;0.95;;;;;;;;;;5025741;28;20045;-76
2021/01/27 02:47:44;;;;;;;1.80;0.70;;;;;;;;;;5010914;28;20026;-76
2021/01/27 02:50:20;;;;;;;1.52;0.68;;;;;;;;;;5013389;28;20045;-76
2021/01/27 02:52:51;;;;;;;1.40;0.70;;;;;;;;;;4971072;28;20081;-76
2021/01/27 02:55:18;;;;;;;1.38;0.70;;;;;;;;;;4991594;28;20062;-76
2021/01/27 02:57:55;;;;;;;1.63;0.70;;;;;;;;;;4994551;28;20068;-76
2021/01/27 03:00:26;;;;;;;1.83;0.73;;;;;;;;;;4978713;28;20034;-76
2021/01/27 03:02:55;;;;;;;1.83;0.85;;;;;;;;;;4994461;28;20034;-76
2021/01/27 03:05:27;;;;;;;2.00;0.90;;;;;;;;;;4994699;28;20132;-76
2021/01/27 03:07:56;;;;;;;1.88;0.77;;;;;;;;;;4994191;28;20112;-76
2021/01/27 03:10:29;;;;;;;2.00;0.90;;;;;;;;;;4994379;28;20088;-76
2021/01/27 03:12:54;;;;;;;1.52;0.70;;;;;;;;;;4978188;28;20030;-76
2021/01/27 03:15:20;;;;;;;1.45;0.70;;;;;;;;;;4994073;28;20065;-76
2021/01/27 03:17:48;;;;;;;1.67;0.80;;;;;;;;;;5009894;28;20111;-76
2021/01/27 03:20:25;;;;;;;1.83;1.00;;;;;;;;;;4991077;28;20073;-76
2021/01/27 03:23:17;;;;;;;1.20;0.70;;;;;;;;;;4990897;28;20061;-76
2021/01/27 03:25:54;;;;;;;1.00;0.60;;;;;;;;;;5002820;28;20116;-76
2021/01/27 03:28:23;;;;;;;1.65;1.30;;;;;;;;;;5013770;28;20041;-76
2021/01/27 03:30:50;;;;;;;1.52;0.70;;;;;;;;;;5007740;28;20496;-76
2021/01/27 03:33:23;;;;;;;1.38;0.82;;;;;;;;;;5009988;28;20030;-76
2021/01/27 03:35:55;;;;;;;1.35;0.50;;;;;;;;;;5010125;28;20037;-76
2021/01/27 03:38:42;;;;;;;1.63;0.63;;;;;;;;;;4994593;28;20041;-76
2021/01/27 03:41:12;;;;;;;1.83;0.73;;;;;;;;;;4994114;28;20414;-76
2021/01/27 03:44:23;;;;;;;1.15;0.65;;;;;;;;;;5009441;28;20053;-76
2021/01/27 03:47:02;;;;;;;1.67;0.75;;;;;;;;;;4954127;28;20505;-76
2021/01/27 03:49:32;;;;;;;1.63;0.70;;;;;;;;;;4954005;28;20066;-76
2021/01/27 03:52:30;;;;;;;1.73;0.77;;;;;;;;;;4979296;28;20123;-76
2021/01/27 03:55:01;;;;;;;1.55;0.50;;;;;;;;;;5009527;28;20041;-76
2021/01/27 03:57:29;;;;;;;1.23;0.70;;;;;;;;;;4997238;28;20049;-76
2021/01/27 03:59:55;;;;;;;1.42;0.88;;;;;;;;;;4979016;28;20092;-76
2021/01/27 04:02:22;;;;;;;1.80;0.60;;;;;;;;;;4993693;28;20031;-75
2021/01/27 04:04:47;;;;;;;1.13;0.70;;;;;;;;;;4993824;28;20045;-76
2021/01/27 04:07:13;;;;;;;0.90;0.43;;;;;;;;;;4993757;28;20034;-75
2021/01/27 04:09:39;;;;;;;0.98;0.40;;;;;;;;;;4994078;28;20160;-75
2021/01/27 04:12:04;;;;;;;1.13;0.75;;;;;;;;;;4993688;28;20121;-75
2021/01/27 04:14:30;;;;;;;1.38;0.50;;;;;;;;;;5010122;28;20038;-75
2021/01/27 04:16:55;;;;;;;1.05;0.50;;;;;;;;;;5009535;28;20047;-75
2021/01/27 04:19:21;;;;;;;1.25;0.55;;;;;;;;;;5009747;28;20455;-75
2021/01/27 04:21:46;;;;;;;1.60;0.60;;;;;;;;;;5014086;28;20049;-75
2021/01/27 04:24:11;;;;;;;0.85;0.40;;;;;;;;;;4996816;28;20409;-75
2021/01/27 04:26:37;;;;;;;1.63;0.63;;;;;;;;;;4996213;28;20049;-75
2021/01/27 04:29:03;;;;;;;1.40;0.57;;;;;;;;;;4980540;28;20384;-75
2021/01/27 04:31:29;;;;;;;0.90;0.40;;;;;;;;;;5012743;28;20033;-75
2021/01/27 04:33:54;;;;;;;1.10;0.43;;;;;;;;;;4996674;28;20030;-74
2021/01/27 04:36:19;;;;;;;0.80;0.50;;;;;;;;;;5013443;28;20391;-74
2021/01/27 04:38:45;;;;;;;0.85;0.40;;;;;;;;;;4999250;28;20439;-74
2021/01/27 04:41:10;;;;;;;0.82;0.30;;;;;;;;;;5013043;28;20107;-74
2021/01/27 04:43:40;;;;;;;1.65;0.32;;;;;;;;;;5013049;28;20109;-75
2021/01/27 04:46:13;;;;;;;1.17;0.40;;;;;;;;;;4996436;28;20030;-74
2021/01/27 04:49:15;;;;;;;0.80;0.35;;;;;;;;;;5012768;28;20033;-74
2021/01/27 04:51:50;;;;;;;1.27;0.50;;;;;;;;;;4994351;28;20069;-74
2021/01/27 04:54:18;;;;;;;1.10;0.50;;;;;;;;;;5008124;28;20038;-74
2021/01/27 04:56:46;;;;;;;1.27;0.50;;;;;;;;;;5008470;28;20125;-74
2021/01/27 04:59:28;;;;;;;1.05;0.47;;;;;;;;;;5013018;28;20030;-74
2021/01/27 05:02:12;;;;;;;1.13;0.40;;;;;;;;;;4981577;28;20156;-74
2021/01/27 05:04:55;;;;;;;0.73;0.30;;;;;;;;;;5012320;28;20044;-74
2021/01/27 05:07:25;;;;;;;0.65;0.30;;;;;;;;;;5012205;28;20057;-74
2021/01/27 05:09:56;;;;;;;0.90;0.50;;;;;;;;;;4996323;28;20029;-74
2021/01/27 05:12:22;;;;;;;0.60;0.20;;;;;;;;;;5011651;28;20026;-74
2021/01/27 05:14:47;;;;;;;0.45;0.25;;;;;;;;;;4995402;28;20532;-74
2021/01/27 05:17:15;;;;;;;0.70;0.40;;;;;;;;;;4995796;28;20496;-74
2021/01/27 05:19:42;;;;;;;0.98;0.47;;;;;;;;;;4996102;28;20079;-74
2021/01/27 05:22:09;;;;;;;0.50;0.30;;;;;;;;;;4995939;28;20037;-74
2021/01/27 05:24:34;;;;;;;1.17;0.35;;;;;;;;;;4979911;28;20042;-74
2021/01/27 05:27:07;;;;;;;0.60;0.30;;;;;;;;;;5007526;28;20037;-74
2021/01/27 05:29:37;;;;;;;;;;;;;;;;;;5031552;28;20087;-73
2021/01/27 05:32:13;;;;;;;0.50;0.20;;;;;;;;;;5015648;28;19928;-73
2021/01/27 05:34:52;;;;;;;1.20;0.40;;;;;;;;;;4996372;28;20069;-73
2021/01/27 05:37:27;;;;;;;0.90;0.70;;;;;;;;;;4981105;28;20033;-73
2021/01/27 05:40:03;;;;;;;0.50;0.20;;;;;;;;;;5013173;28;20488;-74
2021/01/27 05:42:29;;;;;;;1.85;0.40;;;;;;;;;;4997013;28;20265;-73
2021/01/27 05:45:19;;;;;;;0.52;0.25;;;;;;;;;;5011363;28;20510;-73
2021/01/27 05:47:44;;;;;;;0.40;0.17;;;;;;;;;;4998113;28;20571;-73
2021/01/27 05:50:28;;;;;;;0.68;0.30;;;;;;;;;;5008005;28;20035;-73
2021/01/27 05:52:54;;;;;;;0.95;0.28;;;;;;;;;;5011173;28;20034;-73
2021/01/27 05:55:19;;;;;;;0.55;0.20;;;;;;;;;;5013933;28;20065;-73
2021/01/27 05:57:56;;;;;;;1.75;0.47;;;;;;;;;;5014621;28;20037;-73
2021/01/27 06:00:26;;;;;;;1.02;0.70;;;;;;;;;;4992743;28;20514;-73
2021/01/27 06:02:51;;;;;;;0.85;0.30;;;;;;;;;;5024529;28;20046;-73
2021/01/27 06:05:19;;;;;;;0.63;0.40;;;;;;;;;;5003117;28;20048;-73
2021/01/27 06:07:45;;;;;;;0.63;0.28;;;;;;;;;;4975657;28;20038;-73
2021/01/27 06:10:38;;;;;;;0.75;0.20;;;;;;;;;;4991730;28;20038;-73
2021/01/27 06:13:23;;;;;;;1.33;0.17;;;;;;;;;;4990529;28;20052;-73
2021/01/27 06:15:49;;;;;;;0.38;0.20;;;;;;;;;;4993022;28;20030;-73
2021/01/27 06:18:29;;;;;;;0.90;0.30;;;;;;;;;;4991366;28;20038;-73
2021/01/27 06:21:06;;;;;;;0.52;0.30;;;;;;;;;;4991064;28;20030;-73
2021/01/27 06:23:34;;;;;;;0.98;0.20;;;;;;;;;;4992348;28;20050;-73
2021/01/27 06:26:24;;;;;;;0.68;0.20;;;;;;;;;;5011611;28;20061;-73
2021/01/27 06:29:09;;;;;;;0.85;0.30;;;;;;;;;;5011682;28;20038;-73
2021/01/27 06:31:54;;;;;;;0.40;0.10;;;;;;;;;;5008457;28;20112;-73
2021/01/27 06:34:58;;;;;;;0.40;0.20;;;;;;;;;;5009959;28;20073;-73
2021/01/27 06:37:38;;;;;;;1.02;0.30;;;;;;;;;;5005645;28;20034;-73
2021/01/27 06:40:59;;;;;;;1.10;0.20;;;;;;;;;;5009291;28;20045;-73
2021/01/27 06:43:31;;;;;;;0.75;0.20;;;;;;;;;;4959286;28;20576;-73
2021/01/27 06:46:00;;;;;;;0.55;0.20;;;;;;;;;;5005068;28;20057;-73
2021/01/27 06:48:35;;;;;;;0.65;0.52;;;;;;;;;;5028300;28;20056;-73
2021/01/27 06:51:37;;;;;;;1.27;0.47;;;;;;;;;;5031763;28;20423;-73
2021/01/27 06:54:11;;;;;;;0.80;0.43;;;;;;;;;;5014360;28;20038;-73
2021/01/27 06:56:46;;;;;;;1.23;0.22;;;;;;;;;;5011523;28;20108;-73
2021/01/27 06:59:49;;;;;;;0.40;0.22;;;;;;;;;;5011462;28;20109;-73
2021/01/27 07:02:17;;;;;;;;;;;;;;;;;;5012322;28;20084;-73
2021/01/27 07:05:09;;;;;;;0.80;0.20;;;;;;;;;;5006769;28;19913;-73
2021/01/27 07:08:00;;;;;;;0.40;0.20;;;;;;;;;;5010413;28;20060;-73
2021/01/27 07:10:59;;;;;;;0.55;0.20;;;;;;;;;;5011663;28;20042;-73
2021/01/27 07:13:54;;;;;;;0.80;0.28;;;;;;;;;;5010625;28;20119;-73
2021/01/27 07:16:54;;;;;;;0.50;0.17;;;;;;;;;;5012699;28;20095;-73
2021/01/27 07:19:39;;;;;;;1.35;0.40;;;;;;;;;;5011490;28;20038;-73
2021/01/27 07:22:12;;;;;;;0.60;0.20;;;;;;;;;;5010373;28;20096;-73
2021/01/27 07:24:56;;;;;;;0.50;0.20;;;;;;;;;;4995431;28;20427;-73
2021/01/27 07:27:22;;;;;;;0.40;0.20;;;;;;;;;;5008261;28;20152;-73
2021/01/27 07:29:57;;;;;;;0.57;0.30;;;;;;;;;;4993924;28;20113;-73
2021/01/27 07:32:50;;;;;;;0.63;0.20;;;;;;;;;;4994445;28;20045;-73
2021/01/27 07:35:25;;;;;;;0.70;0.22;;;;;;;;;;5012189;28;20422;-73
2021/01/27 07:38:00;;;;;;;2.25;0.28;;;;;;;;;;5010680;28;20042;-73
2021/01/27 07:40:34;;;;;;;0.70;0.20;;;;;;;;;;4998777;28;20033;-73
2021/01/27 07:43:05;;;;;;;0.55;0.30;;;;;;;;;;5013707;28;20046;-72
2021/01/27 07:45:35;;;;;;;0.32;0.20;;;;;;;;;;5011320;28;20077;-74
2021/01/27 07:48:03;;;;;;;0.73;0.30;;;;;;;;;;5022173;28;20561;-74
2021/01/27 07:50:30;;;;;;;1.90;0.40;;;;;;;;;;5017311;28;20518;-74
2021/01/27 07:53:04;;;;;;;1.75;0.20;;;;;;;;;;4994089;28;20488;-74
2021/01/27 07:55:45;;;;;;;2.80;0.30;;;;;;;;;;4997617;28;20161;-75
2021/01/27 07:58:17;;;;;;;0.80;0.47;;;;;;;;;;4998775;28;20030;-75
2021/01/27 08:00:54;;;;;;;0.85;0.57;;;;;;;;;;4997574;28;20045;-75
2021/01/27 08:03:31;;;;;;;0.90;0.32;;;;;;;;;;4997100;28;20041;-75
2021/01/27 08:06:05;;;;;;;2.00;0.40;;;;;;;;;;5003249;28;20111;-75
2021/01/27 08:08:31;;;;;;;1.05;0.20;;;;;;;;;;4993419;28;20030;-74
2021/01/27 08:11:03;;;;;;;1.45;0.40;;;;;;;;;;4987148;28;20044;-74
2021/01/27 08:13:28;;;;;;;;;;;;;;;;;;5017402;28;20038;-74
2021/01/27 08:16:05;;;;;;;2.78;0.50;;;;;;;;;;5033302;28;19924;-74
2021/01/27 08:18:30;;;;;;;2.47;0.77;;;;;;;;;;5017907;28;20080;-74
2021/01/27 08:21:22;;;;;;;2.35;0.40;;;;;;;;;;4996918;28;20423;-73
2021/01/27 08:23:47;;;;;;;1.70;0.33;;;;;;;;;;5012818;28;20065;-74
2021/01/27 08:26:33;;;;;;;1.50;0.47;;;;;;;;;;5019441;28;20045;-74
2021/01/27 08:29:07;;;;;;;2.55;0.60;;;;;;;;;;5016914;28;20034;-74
2021/01/27 08:31:33;;;;;;;1.88;0.30;;;;;;;;;;5010908;28;20060;-74
2021/01/27 08:33:58;;;;;;;2.97;0.60;;;;;;;;;;5000280;28;20539;-73
2021/01/27 08:36:33;;;;;;;2.70;0.60;;;;;;;;;;5000105;28;20045;-73
2021/01/27 08:38:58;;;;;;;1.42;0.45;;;;;;;;;;5016094;28;20046;-73
2021/01/27 08:41:53;;;;;;;3.33;0.50;;;;;;;;;;5016403;28;20606;-73
2021/01/27 08:44:21;;;;;;;3.65;0.75;;;;;;;;;;5015853;28;20048;-73
2021/01/27 08:47:03;;;;;;;3.13;0.40;;;;;;;;;;5017590;28;20162;-73
2021/01/27 08:49:40;;;;;;;3.28;0.70;;;;;;;;;;5015322;28;20061;-73
2021/01/27 08:52:08;;;;;;;2.63;0.80;;;;;;;;;;5018831;28;20025;-73
2021/01/27 08:54:37;;;;;;;1.75;0.40;;;;;;;;;;5013711;28;20365;-74
2021/01/27 08:57:15;;;;;;;1.88;0.40;;;;;;;;;;5018539;28;20045;-74
2021/01/27 09:00:01;;;;;;;3.30;0.50;;;;;;;;;;5015343;28;20443;-73
2021/01/27 09:02:47;;;;;;;1.48;0.60;;;;;;;;;;5016630;28;20036;-73
2021/01/27 09:05:22;;;;;;;1.70;0.80;;;;;;;;;;5000510;28;20048;-74
2021/01/27 09:07:51;;;;;;;2.10;0.60;;;;;;;;;;5016798;28;20065;-74
2021/01/27 09:10:18;;;;;;;5.80;0.98;;;;;;;;;;5013637;28;20116;-73
2021/01/27 09:12:46;;;;;;;3.85;0.90;;;;;;;;;;5014941;28;20065;-74
2021/01/27 09:15:14;;;;;;;1.20;0.50;;;;;;;;;;4996434;28;20045;-73
2021/01/27 09:17:39;;;;;;;2.22;0.90;;;;;;;;;;4978884;28;20042;-73
2021/01/27 09:20:05;;;;;;;1.70;0.70;;;;;;;;;;4994218;28;20029;-73
2021/01/27 09:22:31;;;;;;;2.25;0.50;;;;;;;;;;4992335;28;20037;-73
2021/01/27 09:24:56;;;;;;;3.47;0.60;;;;;;;;;;4979909;28;20042;-73
2021/01/27 09:27:28;;;;;;;3.28;1.05;;;;;;;;;;5013189;28;20056;-74
2021/01/27 09:29:57;;;;;;;3.33;0.60;;;;;;;;;;4982866;28;20050;-74
2021/01/27 09:32:22;;;;;;;2.58;0.90;;;;;;;;;;5013191;28;20022;-74
2021/01/27 09:34:49;;;;;;;3.33;0.70;;;;;;;;;;5011515;28;20154;-74
2021/01/27 09:37:25;;;;;;;2.42;0.38;;;;;;;;;;5011983;28;20030;-74
2021/01/27 09:40:12;;;;;;;2.50;0.60;;;;;;;;;;4995551;28;20033;-74
2021/01/27 09:42:37;;;;;;;2.95;0.50;;;;;;;;;;5011255;28;20151;-74
2021/01/27 09:45:11;;;;;;;2.78;0.90;;;;;;;;;;4991210;28;20511;-74
2021/01/27 09:47:38;;;;;;;2.22;0.70;;;;;;;;;;4991939;28;20440;-74
2021/01/27 09:50:05;;;;;;;3.20;0.63;;;;;;;;;;4991480;28;20491;-74
2021/01/27 09:52:30;;;;;;;2.22;0.60;;;;;;;;;;4993657;28;20045;-73
2021/01/27 09:55:08;;;;;;;4.57;1.60;;;;;;;;;;5000417;28;20037;-72
2021/01/27 09:57:35;;;;;;;5.95;2.55;;;;;;;;;;5018120;28;20049;-72
2021/01/27 10:00:00;;;;;;;8.73;4.55;;;;;;;;;;4995248;28;20484;-73
2021/01/27 10:02:32;;;;;;;7.32;4.50;;;;;;;;;;5011765;28;20040;-73
2021/01/27 10:04:57;;;;;;;8.35;5.05;;;;;;;;;;5008155;28;20571;-73
2021/01/27 10:07:34;;;;;;;7.75;4.00;;;;;;;;;;4992408;28;20038;-72
2021/01/27 10:10:12;;;;;;;8.05;3.50;;;;;;;;;;4995237;28;20037;-73
2021/01/27 10:12:38;;;;;;;9.82;3.70;;;;;;;;;;4995052;28;20434;-72
2021/01/27 10:15:15;;;;;;;6.90;3.50;;;;;;;;;;5011159;28;20034;-72
2021/01/27 10:17:41;;;;;;;6.68;3.42;;;;;;;;;;5011170;28;20026;-72
2021/01/27 10:20:25;;;;;;;5.65;3.65;;;;;;;;;;4994591;28;20037;-73
2021/01/27 10:23:00;;;;;;;5.68;3.22;;;;;;;;;;5009721;28;20519;-72
2021/01/27 10:25:42;;;;;;;9.68;2.65;;;;;;;;;;4986153;28;20556;-72
2021/01/27 10:28:11;;;;;;;4.85;2.88;;;;;;;;;;4991073;28;20057;-73
2021/01/27 10:30:53;;;;;;;6.05;2.85;;;;;;;;;;4996404;28;20488;-73
2021/01/27 10:33:40;;;;;;;4.28;2.15;;;;;;;;;;5028168;28;20080;-73
2021/01/27 10:36:39;;;;;;;3.50;1.60;;;;;;;;;;5027012;28;20040;-72
2021/01/27 10:39:27;;;;;;;3.92;2.10;;;;;;;;;;5011839;28;20550;-72
2021/01/27 10:42:04;;;;;;;3.78;1.60;;;;;;;;;;5011197;28;20117;-72
2021/01/27 10:44:32;;;;;;;3.90;1.98;;;;;;;;;;5011415;28;20034;-72
2021/01/27 10:47:00;;;;;;;7.90;2.47;;;;;;;;;;5011391;28;20041;-72
2021/01/27 10:49:25;;;;;;;4.45;1.77;;;;;;;;;;5008483;28;20030;-72
2021/01/27 10:51:51;;;;;;;3.17;1.58;;;;;;;;;;5010605;28;20040;-72
2021/01/27 10:54:19;;;;;;;3.03;1.60;;;;;;;;;;5000136;28;20030;-72
2021/01/27 10:56:45;;;;;;;3.40;1.40;;;;;;;;;;5014089;28;20492;-72
2021/01/27 10:59:10;;;;;;;3.90;1.52;;;;;;;;;;5018490;28;20033;-72
2021/01/27 11:01:35;;;;;;;3.45;1.20;;;;;;;;;;5010321;28;20037;-72
2021/01/27 11:04:01;;;;;;;3.05;1.30;;;;;;;;;;5011777;28;20045;-72
2021/01/27 11:06:26;;;;;;;2.78;1.15;;;;;;;;;;4994219;28;20565;-73
2021/01/27 11:08:52;;;;;;;3.10;1.33;;;;;;;;;;4993995;28;20034;-72
2021/01/27 11:11:17;;;;;;;3.30;1.33;;;;;;;;;;5015280;28;20052;-72
2021/01/27 11:13:42;;;;;;;2.33;1.00;;;;;;;;;;5015342;28;20033;-72
2021/01/27 11:16:08;;;;;;;2.88;1.10;;;;;;;;;;4981718;28;20030;-72
2021/01/27 11:18:34;;;;;;;2.15;1.00;;;;;;;;;;4995292;28;20041;-72
2021/01/27 11:20:59;;;;;;;2.17;0.82;;;;;;;;;;5013756;28;20041;-72
2021/01/27 11:23:25;;;;;;;1.95;0.90;;;;;;;;;;5018665;28;20046;-72
2021/01/27 11:25:52;;;;;;;2.25;1.08;;;;;;;;;;4994133;28;20048;-72
2021/01/27 11:28:17;;;;;;;2.42;0.85;;;;;;;;;;5000030;28;20029;-72
2021/01/27 11:30:43;;;;;;;3.08;0.80;;;;;;;;;;5028158;28;20030;-72
2021/01/27 11:33:08;;;;;;;2.72;1.10;;;;;;;;;;5022170;28;20074;-72
2021/01/27 11:35:33;;;;;;;3.38;1.20;;;;;;;;;;4994171;28;20034;-76
2021/01/27 11:38:01;;;;;;;2.40;0.70;;;;;;;;;;4997316;28;20033;-76
2021/01/27 11:40:27;;;;;;;3.33;1.00;;;;;;;;;;5015118;28;20034;-76
2021/01/27 11:42:52;;;;;;;3.20;0.88;;;;;;;;;;5010693;28;20136;-76
2021/01/27 11:45:18;;;;;;;3.88;1.20;;;;;;;;;;4993101;28;20036;-77
2021/01/27 11:47:44;;;;;;;3.88;0.75;;;;;;;;;;4979294;28;20105;-77
2021/01/27 11:50:10;;;;;;;2.58;0.80;;;;;;;;;;4997000;28;20042;-78
2021/01/27 11:52:35;;;;;;;2.22;0.95;;;;;;;;;;4995438;28;20052;-73
2021/01/27 11:55:01;;;;;;;2.63;1.27;;;;;;;;;;5011612;28;20038;-74
2021/01/27 11:57:26;;;;;;;2.08;1.30;;;;;;;;;;5007961;28;20056;-74
2021/01/27 11:59:51;;;;;;;3.03;1.17;;;;;;;;;;5032149;28;20383;-74
2021/01/27 12:02:17;;;;;;;2.47;1.13;;;;;;;;;;5016525;28;20038;-74
2021/01/27 12:04:42;;;;;;;2.00;0.75;;;;;;;;;;5011228;28;20034;-73
2021/01/27 12:07:08;;;;;;;2.17;1.00;;;;;;;;;;5010140;28;20034;-73
2021/01/27 12:09:35;;;;;;;3.10;0.77;;;;;;;;;;4980192;28;20045;-73
2021/01/27 12:12:02;;;;;;;3.67;1.10;;;;;;;;;;5012175;28;20030;-74
2021/01/27 12:14:30;;;;;;;5.72;1.08;;;;;;;;;;5011531;28;20396;-73
2021/01/27 12:16:55;;;;;;;3.35;1.20;;;;;;;;;;4995970;28;20065;-73
2021/01/27 12:19:21;;;;;;;2.75;0.82;;;;;;;;;;5023644;28;20064;-77
2021/01/27 12:21:46;;;;;;;2.42;1.00;;;;;;;;;;4994578;28;20041;-77
2021/01/27 12:24:12;;;;;;;3.55;1.00;;;;;;;;;;4978590;28;20042;-76
2021/01/27 12:26:37;;;;;;;3.85;1.15;;;;;;;;;;5011848;28;20109;-77
2021/01/27 12:29:03;;;;;;;5.60;1.05;;;;;;;;;;4998378;28;20376;-77
2021/01/27 12:31:28;;;;;;;2.60;1.40;;;;;;;;;;5002063;28;20047;-76
2021/01/27 12:33:53;;;;;;;2.30;1.00;;;;;;;;;;5011243;28;20472;-76
2021/01/27 12:36:19;;;;;;;4.13;1.27;;;;;;;;;;4994088;28;20045;-76
2021/01/27 12:38:45;;;;;;;3.75;0.80;;;;;;;;;;4991736;28;20042;-76
2021/01/27 12:41:10;;;;;;;2.97;1.20;;;;;;;;;;5002147;28;20029;-76
2021/01/27 12:43:36;;;;;;;2.33;1.00;;;;;;;;;;4998764;28;20109;-76
2021/01/27 12:46:02;;;;;;;2.88;1.05;;;;;;;;;;5011319;28;20034;-76
2021/01/27 12:48:28;;;;;;;2.55;1.30;;;;;;;;;;5001804;28;20069;-76
2021/01/27 12:50:54;;;;;;;3.25;1.05;;;;;;;;;;5029368;28;20124;-76
2021/01/27 12:53:19;;;;;;;1.52;0.70;;;;;;;;;;5019464;28;20481;-76
2021/01/27 12:55:44;;;;;;;2.33;0.77;;;;;;;;;;5007151;28;20399;-77
2021/01/27 12:58:10;;;;;;;4.10;1.40;;;;;;;;;;4998044;28;20120;-77
2021/01/27 13:00:35;;;;;;;3.63;1.10;;;;;;;;;;4994551;28;20036;-77
2021/01/27 13:03:02;;;;;;;7.65;4.63;;;;;;;;;;4973965;28;613530;-77
2021/01/27 13:05:27;;;;;;;10.82;8.65;;;;;;;;;;5012065;28;20084;-76
2021/01/27 13:07:52;;;;;;;8.48;5.47;;;;;;;;;;4979332;28;20469;-76
2021/01/27 13:10:18;;;;;;;6.82;4.40;;;;;;;;;;5012101;28;20050;-76
2021/01/27 13:12:43;;;;;;;8.40;5.03;;;;;;;;;;4995692;28;20034;-76
2021/01/27 13:15:19;;;;;;;7.68;4.45;;;;;;;;;;4995522;28;20109;-76
2021/01/27 13:17:46;;;;;;;6.10;4.30;;;;;;;;;;5012045;28;20037;-76
2021/01/27 13:20:12;;;;;;;9.10;3.80;;;;;;;;;;5013070;28;20522;-76
2021/01/27 13:22:39;;;;;;;5.68;3.13;;;;;;;;;;5012770;28;20038;-76
2021/01/27 13:25:05;;;;;;;6.40;3.13;;;;;;;;;;5012914;28;20033;-76
2021/01/27 13:27:31;;;;;;;5.53;3.10;;;;;;;;;;4995371;28;20096;-75
2021/01/27 13:29:56;;;;;;;6.50;3.20;;;;;;;;;;5011737;28;20030;-75
2021/01/27 13:32:22;;;;;;;4.57;2.47;;;;;;;;;;5011121;28;20041;-75
2021/01/27 13:34:47;;;;;;;5.93;2.70;;;;;;;;;;5011420;28;20559;-75
2021/01/27 13:37:15;;;;;;;5.15;2.60;;;;;;;;;;4994842;28;20472;-75
2021/01/27 13:39:41;;;;;;;6.88;2.83;;;;;;;;;;5013176;28;20045;-75
2021/01/27 13:42:07;;;;;;;7.32;2.60;;;;;;;;;;4979273;28;20033;-74
2021/01/27 13:44:32;;;;;;;6.90;2.95;;;;;;;;;;4998500;28;20075;-74
2021/01/27 13:46:58;;;;;;;9.40;2.08;;;;;;;;;;5017366;28;20037;-75
2021/01/27 13:49:23;;;;;;;4.15;2.13;;;;;;;;;;5027370;28;20041;-74
2021/01/27 13:51:48;;;;;;;8.05;2.65;;;;;;;;;;5014315;28;20112;-74
2021/01/27 13:54:14;;;;;;;6.18;2.17;;;;;;;;;;5010945;28;20040;-74
2021/01/27 13:56:41;;;;;;;4.75;2.40;;;;;;;;;;5011104;28;20049;-74
2021/01/27 13:59:06;;;;;;;9.18;2.88;;;;;;;;;;5011114;28;20381;-74
2021/01/27 14:01:32;;;;;;;6.88;2.13;;;;;;;;;;5010962;28;20034;-74
2021/01/27 14:03:57;;;;;;;5.60;1.98;;;;;;;;;;4993845;28;20037;-75
2021/01/27 14:06:22;;;;;;;7.93;2.53;;;;;;;;;;5008515;28;20165;-75
2021/01/27 14:08:48;;;;;;;6.43;2.10;;;;;;;;;;5010236;28;20116;-75
2021/01/27 14:11:13;;;;;;;5.88;2.33;;;;;;;;;;5001902;28;20404;-74
2021/01/27 14:13:39;;;;;;;7.28;1.83;;;;;;;;;;4997831;28;20033;-74
2021/01/27 14:16:05;;;;;;;4.20;1.60;;;;;;;;;;5010816;28;20088;-75
2021/01/27 14:18:30;;;;;;;5.05;1.70;;;;;;;;;;5011992;28;20026;-72
2021/01/27 14:20:55;;;;;;;4.65;2.03;;;;;;;;;;5010811;28;20042;-72
2021/01/27 14:23:21;;;;;;;5.00;2.38;;;;;;;;;;5010991;28;20411;-72
2021/01/27 14:25:46;;;;;;;5.53;1.60;;;;;;;;;;5011997;28;20050;-72
2021/01/27 14:28:11;;;;;;;6.75;1.98;;;;;;;;;;5011901;28;20534;-73
2021/01/27 14:30:40;;;;;;;3.20;1.30;;;;;;;;;;4991069;28;20038;-72
2021/01/27 14:33:06;;;;;;;4.60;1.40;;;;;;;;;;5012089;28;20042;-72
2021/01/27 14:35:32;;;;;;;4.38;1.45;;;;;;;;;;4994371;28;20025;-73
2021/01/27 14:37:58;;;;;;;4.95;1.50;;;;;;;;;;5010304;28;20033;-72
2021/01/27 14:40:23;;;;;;;4.85;1.52;;;;;;;;;;5010712;28;20057;-73
2021/01/27 14:42:49;;;;;;;3.55;1.30;;;;;;;;;;5010765;28;20388;-73
2021/01/27 14:45:14;;;;;;;3.72;1.23;;;;;;;;;;5010450;28;20499;-73
2021/01/27 14:47:40;;;;;;;2.88;1.25;;;;;;;;;;5011674;28;20109;-73
2021/01/27 14:50:06;;;;;;;3.70;1.40;;;;;;;;;;4992881;28;20435;-73
2021/01/27 14:52:31;;;;;;;5.57;1.40;;;;;;;;;;4979239;28;20034;-73
2021/01/27 14:54:57;;;;;;;4.70;1.45;;;;;;;;;;5015495;28;20041;-73
2021/01/27 14:57:23;;;;;;;3.33;1.35;;;;;;;;;;5031503;28;20115;-73
2021/01/27 14:59:48;;;;;;;3.17;1.20;;;;;;;;;;5029974;28;20109;-73
2021/01/27 15:02:13;;;;;;;1.92;1.17;;;;;;;;;;5013636;28;20041;-73
2021/01/27 15:04:39;;;;;;;3.70;1.58;;;;;;;;;;5013834;28;20031;-73